createdAt,value
2022-12-29T00:00:12.447Z,6.15
2022-12-29T00:02:42.672Z,6.15
2022-12-29T00:05:10.403Z,6.02
2022-12-29T00:07:37.506Z,6.07
2022-12-29T00:10:05.247Z,6.05
2022-12-29T00:12:52.266Z,6.08
2022-12-29T00:15:37.847Z,5.93
2022-12-29T00:18:05.131Z,5.95
2022-12-29T00:20:53.709Z,5.89
2022-12-29T00:23:39.663Z,5.91
2022-12-29T00:26:33.010Z,6.02
2022-12-29T00:29:18.770Z,6.06
2022-12-29T00:32:04.306Z,6.10
2022-12-29T00:34:49.639Z,6.12
2022-12-29T00:37:16.994Z,6.12
2022-12-29T00:40:03.111Z,6.19
2022-12-29T00:42:50.523Z,6.26
2022-12-29T00:45:17.422Z,6.03
2022-12-29T00:47:45.053Z,6.04
2022-12-29T00:50:11.950Z,6.14
2022-12-29T00:52:38.843Z,6.22
2022-12-29T00:55:06.135Z,6.29
2022-12-29T00:57:33.013Z,6.34
2022-12-29T00:59:59.948Z,6.33
2022-12-29T01:02:26.906Z,6.27
2022-12-29T01:04:53.832Z,6.19
2022-12-29T01:07:20.855Z,6.11
2022-12-29T01:10:06.201Z,6.06
2022-12-29T01:12:44.893Z,5.90
2022-12-29T01:15:14.948Z,5.74
2022-12-29T01:17:42.902Z,5.75
2022-12-29T01:20:10.570Z,5.73
2022-12-29T01:22:37.748Z,5.83
2022-12-29T01:25:05.486Z,5.91
2022-12-29T01:27:32.308Z,6.02
2022-12-29T01:29:59.586Z,6.03
2022-12-29T01:32:26.429Z,5.76
2022-12-29T01:34:53.263Z,5.72
2022-12-29T01:37:20.218Z,5.59
2022-12-29T01:39:47.143Z,5.54
2022-12-29T01:42:19.208Z,5.44
2022-12-29T01:45:01.100Z,5.37
2022-12-29T01:48:10.085Z,5.15
2022-12-29T01:50:42.470Z,5.26
2022-12-29T01:53:19.923Z,5.26
2022-12-29T01:55:59.689Z,5.40
2022-12-29T01:58:32.799Z,5.38
2022-12-29T02:01:00.764Z,5.34
2022-12-29T02:03:30.606Z,5.35
2022-12-29T02:06:10.065Z,5.46
2022-12-29T02:08:39.923Z,5.39
2022-12-29T02:11:08.173Z,5.58
2022-12-29T02:13:35.223Z,5.61
2022-12-29T02:16:09.337Z,5.62
2022-12-29T02:18:38.150Z,5.47
2022-12-29T02:21:23.209Z,5.35
2022-12-29T02:23:53.184Z,5.30
2022-12-29T02:26:44.653Z,5.37
2022-12-29T02:29:42.469Z,5.41
2022-12-29T02:32:14.951Z,5.39
2022-12-29T02:35:00.692Z,5.18
2022-12-29T02:37:42.818Z,5.07
2022-12-29T02:40:27.170Z,5.09
2022-12-29T02:43:05.232Z,5.01
2022-12-29T02:46:04.555Z,4.83
2022-12-29T02:48:46.567Z,4.88
2022-12-29T02:51:22.320Z,4.77
2022-12-29T02:54:08.203Z,4.63
2022-12-29T02:56:35.135Z,4.49
2022-12-29T02:59:02.786Z,4.53
2022-12-29T03:02:05.785Z,4.57
2022-12-29T03:04:45.296Z,4.72
2022-12-29T03:07:29.943Z,4.83
2022-12-29T03:10:29.793Z,4.97
2022-12-29T03:13:30.621Z,5.03
2022-12-29T03:16:17.149Z,5.05
2022-12-29T03:18:59.182Z,4.88
2022-12-29T03:21:51.394Z,4.78
2022-12-29T03:24:25.272Z,4.66
2022-12-29T03:26:56.689Z,4.74
2022-12-29T03:29:24.913Z,4.73
2022-12-29T03:31:54.683Z,4.71
2022-12-29T03:34:23.097Z,4.76
2022-12-29T03:36:55.326Z,4.79
2022-12-29T03:39:24.937Z,4.75
2022-12-29T03:41:58.332Z,4.56
2022-12-29T03:44:37.418Z,4.29
2022-12-29T03:47:05.397Z,4.11
2022-12-29T03:49:32.288Z,4.10
2022-12-29T03:51:59.207Z,3.99
2022-12-29T03:54:27.255Z,3.92
2022-12-29T03:56:54.152Z,3.89
2022-12-29T03:59:31.535Z,3.82
2022-12-29T04:01:58.511Z,3.94
2022-12-29T04:04:25.740Z,3.89
2022-12-29T04:06:52.678Z,3.92
2022-12-29T04:09:19.673Z,3.86
2022-12-29T04:11:49.264Z,3.71
2022-12-29T04:14:16.254Z,3.64
2022-12-29T04:16:45.427Z,3.62
2022-12-29T04:19:12.394Z,3.74
2022-12-29T04:21:39.258Z,3.73
2022-12-29T04:24:10.080Z,3.61
2022-12-29T04:26:41.578Z,3.50
2022-12-29T04:29:43.779Z,3.60
2022-12-29T04:32:31.359Z,3.78
2022-12-29T04:34:58.324Z,3.68
2022-12-29T04:37:25.271Z,3.95
2022-12-29T04:39:52.635Z,4.08
2022-12-29T04:42:19.532Z,4.18
2022-12-29T04:44:47.196Z,4.22
2022-12-29T04:47:21.174Z,4.13
2022-12-29T04:49:55.349Z,4.04
2022-12-29T04:52:34.569Z,4.14
2022-12-29T04:55:01.698Z,4.17
2022-12-29T04:57:30.524Z,4.07
2022-12-29T04:59:59.924Z,4.16
2022-12-29T05:02:27.327Z,4.00
2022-12-29T05:04:56.062Z,4.03
2022-12-29T05:07:23.608Z,4.14
2022-12-29T05:09:51.619Z,4.10
2022-12-29T05:12:19.038Z,4.12
2022-12-29T05:14:54.441Z,3.96
2022-12-29T05:18:17.731Z,3.77
2022-12-29T05:20:46.161Z,3.38
2022-12-29T05:23:13.708Z,3.25
2022-12-29T05:25:42.175Z,3.19
2022-12-29T05:28:16.475Z,3.14
2022-12-29T05:31:08.151Z,3.11
2022-12-29T05:33:35.444Z,3.02
2022-12-29T05:36:08.113Z,2.99
2022-12-29T05:38:36.764Z,2.84
2022-12-29T05:41:03.742Z,2.83
2022-12-29T05:43:42.732Z,2.91
2022-12-29T05:46:38.783Z,2.85
2022-12-29T05:49:08.803Z,2.82
2022-12-29T05:52:44.868Z,2.90
2022-12-29T05:55:12.962Z,2.83
2022-12-29T05:57:41.192Z,3.10
2022-12-29T06:00:12.560Z,3.09
2022-12-29T06:02:43.528Z,3.04
2022-12-29T06:05:10.707Z,3.10
2022-12-29T06:07:39.365Z,3.20
2022-12-29T06:10:07.865Z,3.35
2022-12-29T06:12:43.448Z,3.50
2022-12-29T06:15:11.170Z,3.59
2022-12-29T06:17:40.562Z,3.69
2022-12-29T06:20:09.056Z,3.81
2022-12-29T06:22:35.991Z,3.83
2022-12-29T06:25:05.378Z,3.78
2022-12-29T06:27:34.632Z,3.98
2022-12-29T06:30:02.299Z,4.09
2022-12-29T06:32:31.852Z,4.09
2022-12-29T06:35:06.864Z,4.01
2022-12-29T06:37:38.693Z,3.92
2022-12-29T06:40:06.331Z,3.93
2022-12-29T06:42:47.073Z,4.11
2022-12-29T06:45:34.373Z,4.25
2022-12-29T06:48:01.295Z,4.41
2022-12-29T06:50:28.528Z,4.38
2022-12-29T06:52:55.459Z,4.56
2022-12-29T06:55:23.460Z,4.48
2022-12-29T06:57:50.412Z,4.54
2022-12-29T07:00:22.470Z,4.38
2022-12-29T07:02:50.195Z,4.59
2022-12-29T07:05:17.365Z,4.47
2022-12-29T07:07:44.704Z,4.39
2022-12-29T07:10:11.616Z,4.23
2022-12-29T07:12:38.579Z,4.21
2022-12-29T07:15:05.771Z,4.19
2022-12-29T07:17:32.791Z,4.19
2022-12-29T07:19:59.732Z,4.14
2022-12-29T07:22:26.648Z,4.29
2022-12-29T07:24:53.576Z,4.46
2022-12-29T07:27:20.440Z,4.34
2022-12-29T07:29:47.364Z,4.56
2022-12-29T07:32:14.321Z,4.46
2022-12-29T07:34:41.245Z,4.47
2022-12-29T07:37:08.131Z,4.49
2022-12-29T07:39:35.121Z,4.46
2022-12-29T07:42:05.074Z,4.47
2022-12-29T07:44:39.394Z,4.55
2022-12-29T07:47:24.682Z,4.67
2022-12-29T07:49:51.912Z,4.76
2022-12-29T07:52:19.027Z,4.77
2022-12-29T07:54:46.306Z,5.06
2022-12-29T07:57:13.427Z,5.22
2022-12-29T07:59:40.520Z,5.23
2022-12-29T08:02:10.731Z,5.46
2022-12-29T08:04:37.652Z,5.37
2022-12-29T08:07:04.934Z,5.37
2022-12-29T08:09:31.806Z,5.45
2022-12-29T08:11:58.729Z,5.66
2022-12-29T08:14:25.692Z,5.54
2022-12-29T08:16:52.700Z,5.78
2022-12-29T08:19:19.700Z,5.82
2022-12-29T08:21:46.719Z,6.04
2022-12-29T08:24:13.685Z,6.18
2022-12-29T08:26:40.627Z,6.23
2022-12-29T08:29:07.487Z,6.56
2022-12-29T08:31:34.427Z,6.66
2022-12-29T08:34:02.567Z,6.68
2022-12-29T08:36:29.817Z,6.90
2022-12-29T08:38:56.778Z,6.80
2022-12-29T08:41:24.152Z,6.90
2022-12-29T08:43:53.711Z,7.05
2022-12-29T08:46:20.679Z,7.09
2022-12-29T08:48:47.788Z,7.10
2022-12-29T08:51:14.912Z,7.06
2022-12-29T08:53:41.815Z,7.24
2022-12-29T08:56:10.858Z,7.09
2022-12-29T08:58:45.956Z,7.24
2022-12-29T09:01:13.185Z,7.32
2022-12-29T09:04:14.134Z,7.33
2022-12-29T09:06:27.186Z,7.44
2022-12-29T09:08:56.490Z,7.49
2022-12-29T09:11:25.557Z,7.71
2022-12-29T09:13:53.477Z,7.93
2022-12-29T09:16:23.671Z,7.98
2022-12-29T09:18:51.678Z,8.05
2022-12-29T09:21:18.660Z,8.03
2022-12-29T09:23:45.717Z,8.20
2022-12-29T09:26:12.652Z,8.23
2022-12-29T09:28:39.668Z,8.34
2022-12-29T09:31:07.025Z,8.30
2022-12-29T09:33:36.434Z,8.37
2022-12-29T09:36:04.443Z,8.55
2022-12-29T09:38:31.911Z,8.62
2022-12-29T09:41:30.785Z,8.64
2022-12-29T09:44:09.826Z,8.76
2022-12-29T09:46:41.454Z,8.81
2022-12-29T09:49:47.270Z,8.91
2022-12-29T09:52:22.686Z,9.01
2022-12-29T09:55:20.410Z,9.16
2022-12-29T09:57:53.456Z,9.33
2022-12-29T10:00:35.026Z,8.99
2022-12-29T10:03:16.026Z,9.15
2022-12-29T10:05:45.944Z,9.22
2022-12-29T10:08:27.945Z,9.26
2022-12-29T10:17:20.457Z,9.39
2022-12-29T10:19:59.102Z,9.49
2022-12-29T10:22:37.926Z,9.50
2022-12-29T10:25:16.084Z,9.31
2022-12-29T10:27:49.888Z,9.42
2022-12-29T10:30:18.010Z,9.63
2022-12-29T10:33:03.104Z,9.62
2022-12-29T10:35:41.675Z,9.62
2022-12-29T10:38:11.537Z,9.85
2022-12-29T10:40:44.856Z,9.78
2022-12-29T10:43:26.674Z,9.93
2022-12-29T10:45:58.522Z,10.11
2022-12-29T10:48:33.000Z,10.16
2022-12-29T10:51:04.810Z,10.06
2022-12-29T10:57:46.851Z,10.13
2022-12-29T11:00:23.493Z,9.97
2022-12-29T11:03:11.364Z,10.16
2022-12-29T11:05:57.147Z,10.39
2022-12-29T11:08:28.942Z,10.48
2022-12-29T11:11:04.549Z,10.44
2022-12-29T11:13:38.973Z,10.76
2022-12-29T11:16:06.840Z,10.72
2022-12-29T11:18:41.006Z,10.48
2022-12-29T11:21:28.722Z,10.66
2022-12-29T11:24:04.432Z,10.76
2022-12-29T11:26:34.803Z,10.76
2022-12-29T11:29:17.417Z,10.95
2022-12-29T11:31:46.701Z,11.05
2022-12-29T11:34:26.555Z,11.18
2022-12-29T11:37:04.490Z,11.18
2022-12-29T11:39:40.417Z,11.17
2022-12-29T11:42:14.800Z,11.20
2022-12-29T11:44:46.072Z,11.05
2022-12-29T11:47:26.585Z,10.98
2022-12-29T11:49:56.702Z,11.10
2022-12-29T11:52:34.118Z,10.92
2022-12-29T11:55:02.677Z,10.77
2022-12-29T11:57:32.399Z,10.93
2022-12-29T12:00:02.371Z,10.90
2022-12-29T12:02:45.583Z,11.05
2022-12-29T12:05:28.199Z,11.01
2022-12-29T12:08:21.572Z,10.99
2022-12-29T12:10:59.885Z,10.88
2022-12-29T12:13:33.209Z,10.98
2022-12-29T12:16:13.585Z,11.02
2022-12-29T12:18:43.614Z,10.97
2022-12-29T12:21:29.214Z,11.17
2022-12-29T12:24:06.973Z,11.08
2022-12-29T12:27:00.467Z,10.96
2022-12-29T12:29:39.562Z,11.15
2022-12-29T12:32:21.747Z,11.12
2022-12-29T12:34:50.079Z,11.18
2022-12-29T12:37:25.109Z,11.26
2022-12-29T12:40:16.705Z,11.35
2022-12-29T12:42:49.238Z,11.28
2022-12-29T12:45:22.434Z,11.40
2022-12-29T12:48:07.752Z,11.36
2022-12-29T12:50:50.501Z,11.37
2022-12-29T12:53:46.822Z,11.32
2022-12-29T12:56:13.914Z,11.14
2022-12-29T12:58:43.811Z,11.33
2022-12-29T13:01:30.487Z,11.26
2022-12-29T13:04:23.685Z,11.21
2022-12-29T13:06:59.415Z,11.20
2022-12-29T13:09:42.147Z,11.25
2022-12-29T13:12:30.442Z,11.31
2022-12-29T13:15:17.965Z,11.43
2022-12-29T13:18:12.650Z,11.34
2022-12-29T13:21:07.728Z,11.31
2022-12-29T13:23:48.915Z,11.33
2022-12-29T13:26:23.056Z,11.35
2022-12-29T13:28:56.362Z,11.30
2022-12-29T13:31:39.316Z,11.24
2022-12-29T13:34:30.272Z,11.31
2022-12-29T13:37:05.235Z,11.33
2022-12-29T13:39:38.280Z,11.28
2022-12-29T13:42:06.463Z,11.34
2022-12-29T13:45:03.921Z,11.28
2022-12-29T13:48:03.571Z,11.13
2022-12-29T13:50:36.256Z,11.13
2022-12-29T13:53:15.154Z,11.20
2022-12-29T13:55:46.943Z,11.18
2022-12-29T13:58:47.663Z,11.22
2022-12-29T14:01:28.221Z,11.18
2022-12-29T14:04:00.981Z,11.17
2022-12-29T14:06:36.955Z,11.15
2022-12-29T14:09:06.730Z,11.05
2022-12-29T14:11:39.079Z,11.07
2022-12-29T14:14:41.558Z,11.05
2022-12-29T14:17:15.142Z,11.11
2022-12-29T14:19:46.487Z,11.04
2022-12-29T14:22:13.723Z,10.98
2022-12-29T14:24:42.359Z,11.07
2022-12-29T14:27:12.035Z,10.90
2022-12-29T14:29:41.659Z,10.71
2022-12-29T14:32:26.967Z,10.59
2022-12-29T14:34:58.595Z,10.40
2022-12-29T14:37:27.547Z,10.20
2022-12-29T14:40:07.825Z,10.21
2022-12-29T14:42:34.875Z,10.11
2022-12-29T14:45:05.204Z,9.98
2022-12-29T14:47:32.151Z,9.99
2022-12-29T14:50:08.677Z,9.71
2022-12-29T14:53:02.953Z,9.60
2022-12-29T14:55:42.058Z,9.55
2022-12-29T14:58:32.227Z,9.50
2022-12-29T15:01:00.743Z,9.36
2022-12-29T15:03:44.956Z,9.32
2022-12-29T15:06:19.891Z,9.28
2022-12-29T15:09:09.785Z,9.01
2022-12-29T15:11:36.683Z,9.20
2022-12-29T15:14:04.176Z,9.15
2022-12-29T15:16:34.446Z,9.16
2022-12-29T15:19:02.624Z,9.17
2022-12-29T15:21:37.566Z,9.03
2022-12-29T15:24:05.541Z,9.05
2022-12-29T15:26:41.431Z,9.08
2022-12-29T15:29:40.916Z,9.11
2022-12-29T15:32:16.781Z,9.05
2022-12-29T15:34:49.382Z,9.00
2022-12-29T15:37:23.649Z,8.93
2022-12-29T15:39:51.268Z,8.92
2022-12-29T15:42:33.358Z,8.90
2022-12-29T15:45:10.653Z,8.95
2022-12-29T15:47:39.668Z,8.89
2022-12-29T15:50:34.284Z,8.89
2022-12-29T15:53:06.067Z,8.78
2022-12-29T15:55:39.274Z,8.54
2022-12-29T15:58:28.330Z,8.68
2022-12-29T16:00:58.637Z,8.66
2022-12-29T16:03:28.724Z,8.64
2022-12-29T16:06:09.805Z,8.37
2022-12-29T16:08:41.545Z,8.57
2022-12-29T16:11:31.648Z,8.60
2022-12-29T16:13:59.190Z,8.63
2022-12-29T16:16:30.506Z,8.48
2022-12-29T16:18:58.529Z,8.51
2022-12-29T16:21:35.849Z,8.49
2022-12-29T16:24:12.916Z,8.57
2022-12-29T16:26:40.475Z,8.61
2022-12-29T16:29:09.328Z,8.67
2022-12-29T16:31:49.288Z,8.59
2022-12-29T16:34:26.563Z,8.60
2022-12-29T16:37:00.117Z,8.32
2022-12-29T16:39:40.618Z,8.14
2022-12-29T16:42:45.638Z,8.19
2022-12-29T16:45:24.790Z,8.13
2022-12-29T16:48:06.691Z,8.11
2022-12-29T16:50:39.484Z,7.95
2022-12-29T16:53:08.790Z,8.13
2022-12-29T16:55:35.711Z,7.91
2022-12-29T16:58:03.006Z,8.00
2022-12-29T17:00:36.708Z,7.80
2022-12-29T17:03:04.731Z,7.71
2022-12-29T17:05:31.863Z,7.37
2022-12-29T17:08:01.931Z,7.31
2022-12-29T17:10:49.504Z,7.39
2022-12-29T17:13:16.356Z,7.31
2022-12-29T17:15:43.277Z,7.42
2022-12-29T17:18:14.134Z,7.39
2022-12-29T17:20:41.279Z,7.39
2022-12-29T17:23:19.873Z,7.38
2022-12-29T17:25:49.907Z,7.39
2022-12-29T17:28:23.534Z,7.42
2022-12-29T17:30:53.081Z,7.12
2022-12-29T17:33:21.355Z,6.95
2022-12-29T17:35:54.891Z,6.72
2022-12-29T17:38:24.956Z,6.66
2022-12-29T17:40:52.214Z,6.53
2022-12-29T17:43:20.193Z,6.39
2022-12-29T17:45:54.543Z,6.56
2022-12-29T17:48:22.178Z,6.64
2022-12-29T17:50:51.977Z,6.73
2022-12-29T17:53:24.907Z,6.77
2022-12-29T17:55:52.236Z,6.41
2022-12-29T17:58:24.741Z,6.54
2022-12-29T18:00:53.543Z,6.59
2022-12-29T18:03:27.729Z,6.41
2022-12-29T18:05:55.297Z,6.68
2022-12-29T18:08:22.266Z,6.59
2022-12-29T18:10:51.297Z,6.33
2022-12-29T18:13:25.901Z,6.40
2022-12-29T18:15:55.914Z,6.33
2022-12-29T18:18:25.192Z,6.33
2022-12-29T18:20:54.753Z,5.93
2022-12-29T18:23:32.422Z,5.98
2022-12-29T18:26:05.966Z,6.06
2022-12-29T18:28:32.942Z,6.10
2022-12-29T18:31:01.515Z,6.25
2022-12-29T18:33:29.747Z,6.22
2022-12-29T18:36:05.074Z,6.21
2022-12-29T18:41:57.181Z,5.82
2022-12-29T18:44:24.729Z,5.79
2022-12-29T18:46:52.124Z,5.92
2022-12-29T18:49:19.018Z,5.83
2022-12-29T18:51:46.089Z,5.81
2022-12-29T18:54:39.120Z,5.85
2022-12-29T18:57:05.986Z,5.83
2022-12-29T18:59:32.849Z,5.67
2022-12-29T19:01:59.786Z,5.63
2022-12-29T19:04:31.709Z,5.64
2022-12-29T19:07:01.779Z,5.73
2022-12-29T19:09:28.688Z,5.75
2022-12-29T19:11:55.571Z,5.62
2022-12-29T19:14:30.566Z,5.60
2022-12-29T19:17:13.290Z,5.41
2022-12-29T19:19:43.470Z,5.46
2022-12-29T19:22:10.828Z,5.28
2022-12-29T19:24:37.719Z,5.31
2022-12-29T19:27:05.158Z,5.39
2022-12-29T19:29:32.016Z,5.36
2022-12-29T19:31:59.071Z,5.44
2022-12-29T19:34:26.184Z,5.26
2022-12-29T19:36:53.330Z,4.95
2022-12-29T19:39:21.001Z,5.17
2022-12-29T19:41:48.009Z,5.28
2022-12-29T19:44:32.213Z,5.36
2022-12-29T19:46:59.243Z,5.20
2022-12-29T19:49:26.196Z,4.93
2022-12-29T19:51:54.055Z,4.73
2022-12-29T19:54:20.997Z,4.66
2022-12-29T19:56:47.871Z,4.60
2022-12-29T19:59:14.778Z,4.69
2022-12-29T20:01:41.945Z,4.74
2022-12-29T20:04:08.957Z,4.65
2022-12-29T20:06:35.832Z,4.66
2022-12-29T20:09:03.426Z,4.54
2022-12-29T20:11:30.315Z,4.56
2022-12-29T20:13:57.260Z,4.58
2022-12-29T20:16:25.125Z,4.58
2022-12-29T20:18:54.429Z,4.39
2022-12-29T20:21:24.658Z,4.49
2022-12-29T20:23:53.115Z,4.47
2022-12-29T20:26:28.853Z,4.53
2022-12-29T20:28:58.158Z,4.45
2022-12-29T20:31:31.529Z,4.58
2022-12-29T20:33:59.042Z,4.66
2022-12-29T20:36:29.238Z,4.69
2022-12-29T20:38:57.187Z,4.72
2022-12-29T20:41:24.823Z,4.95
2022-12-29T20:43:53.444Z,4.97
2022-12-29T20:46:23.219Z,5.05
2022-12-29T20:48:52.732Z,5.02
2022-12-29T20:51:21.143Z,4.99
2022-12-29T20:53:48.390Z,4.99
2022-12-29T20:56:19.512Z,5.02
2022-12-29T20:59:17.564Z,4.87
2022-12-29T21:01:34.773Z,4.86
2022-12-29T21:04:01.770Z,4.79
2022-12-29T21:06:28.791Z,4.89
2022-12-29T21:08:55.734Z,4.83
2022-12-29T21:11:23.207Z,4.70
2022-12-29T21:13:50.323Z,4.60
2022-12-29T21:16:21.223Z,4.48
2022-12-29T21:18:51.466Z,4.27
2022-12-29T21:21:21.292Z,4.14
2022-12-29T21:23:50.888Z,3.99
2022-12-29T21:26:20.338Z,4.03
2022-12-29T21:28:47.545Z,3.99
2022-12-29T21:31:25.526Z,4.04
2022-12-29T21:33:54.219Z,4.12
2022-12-29T21:36:21.511Z,4.19
2022-12-29T21:38:48.528Z,4.24
2022-12-29T21:41:17.089Z,4.21
2022-12-29T21:44:04.675Z,4.09
2022-12-29T21:46:35.578Z,4.07
2022-12-29T21:49:03.426Z,3.97
2022-12-29T21:51:49.388Z,4.00
2022-12-29T21:54:43.021Z,4.14
2022-12-29T21:57:15.452Z,4.13
2022-12-29T22:00:04.948Z,3.92
2022-12-29T22:02:54.973Z,3.85
2022-12-29T22:05:40.455Z,3.84
2022-12-29T22:08:26.137Z,3.83
2022-12-29T22:11:11.817Z,3.69
2022-12-29T22:13:39.574Z,3.60
2022-12-29T22:16:09.092Z,3.44
2022-12-29T22:18:36.756Z,3.32
2022-12-29T22:21:08.263Z,3.05
2022-12-29T22:23:37.756Z,2.90
2022-12-29T22:26:06.424Z,2.78
2022-12-29T22:28:38.998Z,2.74
2022-12-29T22:31:29.150Z,2.68
2022-12-29T22:34:01.542Z,2.67
2022-12-29T22:36:29.288Z,2.72
2022-12-29T22:38:56.190Z,2.73
2022-12-29T22:41:23.705Z,2.70
2022-12-29T22:43:50.771Z,2.72
2022-12-29T22:46:17.765Z,2.82
2022-12-29T22:48:44.779Z,2.82
2022-12-29T22:51:11.697Z,2.87
2022-12-29T22:53:39.565Z,2.87
2022-12-29T22:56:11.295Z,2.78
2022-12-29T22:58:47.526Z,2.81
2022-12-29T23:01:17.517Z,2.69
2022-12-29T23:03:45.369Z,2.78
2022-12-29T23:09:32.945Z,2.82
2022-12-29T23:11:59.752Z,2.78
2022-12-29T23:14:26.623Z,2.81
2022-12-29T23:16:54.129Z,2.87
2022-12-29T23:19:21.094Z,2.64
2022-12-29T23:21:47.982Z,2.83
2022-12-29T23:24:15.154Z,2.82
2022-12-29T23:26:44.639Z,2.80
2022-12-29T23:29:15.309Z,2.84
2022-12-29T23:31:42.926Z,2.89
2022-12-29T23:34:11.470Z,2.85
2022-12-29T23:36:38.555Z,2.89
2022-12-29T23:39:06.078Z,2.82
2022-12-29T23:41:32.959Z,2.79
2022-12-29T23:43:59.839Z,2.75
2022-12-29T23:46:29.565Z,2.80
2022-12-29T23:48:56.925Z,2.85
2022-12-29T23:51:24.238Z,3.01
2022-12-29T23:53:51.108Z,3.03
2022-12-29T23:56:20.002Z,3.09
2022-12-29T23:58:47.362Z,3.14
